Time;durP1;ratioP1;P1;durP2;ratioP2;P2;SDS_P1;SDS_P2;PMS_P1;PMS_P2;Temp;Humidity;BMP_temperature;BMP_pressure;BME280_temperature;BME280_humidity;BME280_pressure;Samples;Min_cycle;Max_cycle;Signal;HPM_P1;HPM_P2
2022/08/17 00:01:55;;;;;;;;;;;;;;;26.62;59.74;100692.28;5070566;28;20028;-80
2022/08/17 00:04:21;;;;;;;17.08;13.60;;;;;;;26.58;60.38;100696.78;5068480;28;19916;-81
2022/08/17 00:06:48;;;;;;;16.67;13.98;;;;;;;26.58;60.41;100686.94;5070757;28;20074;-81
2022/08/17 00:09:13;;;;;;;16.15;13.65;;;;;;;26.58;60.07;100689.63;5086484;28;20031;-80
2022/08/17 00:11:40;;;;;;;;;;;;;;;26.58;60.37;100681.59;5071017;28;20427;-80
2022/08/17 00:14:12;;;;;;;17.30;14.10;;;;;;;26.58;60.24;100684.25;5070822;28;20354;-80
2022/08/17 00:16:44;;;;;;;15.82;14.10;;;;;;;26.50;60.35;100679.88;5072892;28;20055;-80
2022/08/17 00:19:12;;;;;;;15.82;13.40;;;;;;;26.56;59.98;100683.44;5056289;28;20071;-81
2022/08/17 00:21:43;;;;;;;14.85;13.15;;;;;;;26.53;60.23;100682.53;5090019;28;20036;-80
2022/08/17 00:24:10;;;;;;;15.23;13.52;;;;;;;26.50;60.20;100678.13;5073116;28;20027;-80
2022/08/17 00:26:36;;;;;;;16.50;13.63;;;;;;;26.54;60.46;100687.88;5074279;28;20063;-80
2022/08/17 00:29:02;;;;;;;15.05;13.45;;;;;;;26.51;60.38;100671.84;5074247;28;20051;-80
2022/08/17 00:31:27;;;;;;;;;;;;;;;26.58;60.14;100673.53;5074413;28;20135;-80
2022/08/17 00:33:53;;;;;;;17.38;13.90;;;;;;;26.55;60.41;100678.94;5072692;28;20012;-80
2022/08/17 00:36:18;;;;;;;;;;;;;;;26.58;60.03;100678.91;5078770;28;20037;-81
2022/08/17 00:38:44;;;;;;;15.05;13.45;;;;;;;26.54;59.95;100661.09;5073368;28;20377;-80
2022/08/17 00:41:23;;;;;;;17.70;13.82;;;;;;;26.54;59.95;100670.91;5072716;28;20024;-80
2022/08/17 00:43:50;;;;;;;14.88;13.25;;;;;;;26.52;59.79;100660.25;5070247;28;20031;-81
2022/08/17 00:46:21;;;;;;;15.85;13.18;;;;;;;26.49;59.80;100654.91;5069970;28;20035;-81
2022/08/17 00:48:47;;;;;;;16.13;13.32;;;;;;;26.52;59.98;100656.66;5073510;28;20543;-80
2022/08/17 00:51:34;;;;;;;14.93;13.32;;;;;;;26.54;60.35;100660.19;5076569;28;20072;-80
2022/08/17 00:54:06;;;;;;;15.65;13.43;;;;;;;26.54;60.06;100661.09;5071853;28;20029;-80
2022/08/17 00:56:37;;;;;;;15.18;13.30;;;;;;;26.49;59.75;100654.03;5079950;28;20040;-80
2022/08/17 00:59:05;;;;;;;15.70;13.93;;;;;;;26.39;59.95;100630.06;5073952;28;20052;-80
2022/08/17 01:01:34;;;;;;;14.82;12.93;;;;;;;26.53;59.69;100662.00;5070014;28;20038;-81
2022/08/17 01:04:01;;;;;;;14.50;12.90;;;;;;;26.47;60.02;100647.81;5071889;28;20051;-82
2022/08/17 01:06:27;;;;;;;13.70;12.10;;;;;;;26.31;59.90;100615.88;5072466;28;20037;-80
2022/08/17 01:08:55;;;;;;;14.60;13.07;;;;;;;26.53;59.89;100655.75;5069358;28;20082;-80
2022/08/17 01:11:20;;;;;;;15.68;13.45;;;;;;;26.47;60.18;100645.13;5074018;28;20028;-80
2022/08/17 01:13:46;;;;;;;;;;;;;;;26.55;59.84;100651.28;5074541;28;20087;-80
2022/08/17 01:16:19;;;;;;;14.82;12.93;;;;;;;26.41;60.31;100641.59;5065990;28;20557;-80
2022/08/17 01:18:47;;;;;;;15.73;12.90;;;;;;;26.52;60.27;100653.97;5083823;28;20111;-79
2022/08/17 01:21:35;;;;;;;15.07;13.00;;;;;;;26.35;59.91;100627.41;5079289;28;20027;-80
2022/08/17 01:24:01;;;;;;;16.65;13.60;;;;;;;26.48;59.70;100646.88;5075729;28;20423;-80
2022/08/17 01:26:28;;;;;;;15.13;13.52;;;;;;;26.48;59.81;100654.91;5073736;28;20433;-81
2022/08/17 01:28:54;;;;;;;15.30;13.23;;;;;;;26.46;59.92;100644.25;5077123;28;20032;-80
2022/08/17 01:31:19;;;;;;;;;;;;;;;26.52;59.89;100652.19;5064423;28;20044;-80
2022/08/17 01:33:46;;;;;;;15.48;13.25;;;;;;;26.40;59.79;100636.28;5072509;28;19912;-81
2022/08/17 01:36:12;;;;;;;14.07;12.48;;;;;;;26.45;59.77;100647.81;5071901;28;20066;-80
2022/08/17 01:38:37;;;;;;;;;;;;;;;26.51;59.83;100647.75;5073430;28;20067;-80
2022/08/17 01:41:11;;;;;;;14.65;13.00;;;;;;;26.43;59.74;100648.75;5071669;28;19939;-80
2022/08/17 01:43:45;;;;;;;15.02;13.32;;;;;;;26.38;60.03;100636.31;5085859;28;20032;-80
2022/08/17 01:46:21;;;;;;;14.88;12.90;;;;;;;26.40;59.98;100641.66;5058169;28;20408;-80
2022/08/17 01:48:47;;;;;;;15.23;13.18;;;;;;;26.28;59.66;100621.25;5069383;28;20028;-81
2022/08/17 01:51:14;;;;;;;15.52;12.82;;;;;;;26.46;59.75;100648.69;5073406;28;20028;-81
2022/08/17 01:53:44;;;;;;;17.20;13.85;;;;;;;26.46;60.15;100651.38;5080249;28;20032;-80
2022/08/17 01:56:12;;;;;;;15.93;13.48;;;;;;;26.47;59.93;100642.44;5075536;28;20040;-79
2022/08/17 01:58:39;;;;;;;13.48;12.10;;;;;;;26.43;59.69;100633.56;5075754;28;20056;-79
2022/08/17 02:01:05;;;;;;;16.65;12.90;;;;;;;26.31;59.58;100618.56;5068499;28;20062;-81
2022/08/17 02:03:33;;;;;;;13.77;12.38;;;;;;;26.45;59.92;100641.59;5073340;28;20028;-81
2022/08/17 02:05:59;;;;;;;17.42;12.93;;;;;;;26.38;59.55;100632.75;5073835;28;20067;-80
2022/08/17 02:08:26;;;;;;;13.90;12.50;;;;;;;26.38;59.72;100630.94;5077624;28;20111;-80
2022/08/17 02:10:53;;;;;;;14.82;13.32;;;;;;;26.27;59.78;100610.56;5074082;28;20101;-81
2022/08/17 02:13:19;;;;;;;14.70;13.10;;;;;;;26.44;59.74;100642.47;5068305;28;20115;-80
2022/08/17 02:15:45;;;;;;;;;;;;;;;26.47;59.85;100642.44;5071708;28;20589;-80
2022/08/17 02:18:13;;;;;;;12.93;11.65;;;;;;;26.40;59.75;100641.66;5073864;28;19920;-80
2022/08/17 02:20:41;;;;;;;15.07;13.30;;;;;;;26.45;59.95;100644.25;5069782;28;20064;-80
2022/08/17 02:23:08;;;;;;;16.23;13.48;;;;;;;26.43;60.20;100646.06;5069890;28;20036;-79
2022/08/17 02:25:35;;;;;;;15.00;13.07;;;;;;;26.44;59.80;100646.06;5073970;28;20086;-80
2022/08/17 02:28:01;;;;;;;14.18;12.60;;;;;;;26.44;60.04;100640.72;5070471;28;20036;-80
2022/08/17 02:30:27;;;;;;;13.40;12.05;;;;;;;26.38;59.67;100625.59;5068623;28;20044;-79
2022/08/17 02:32:53;;;;;;;;;;;;;;;26.47;59.73;100642.44;5071118;28;20036;-80
2022/08/17 02:35:20;;;;;;;16.17;12.93;;;;;;;26.45;60.01;100638.91;5070163;28;19912;-80
2022/08/17 02:37:46;;;;;;;14.43;12.93;;;;;;;26.43;59.74;100638.03;5068091;28;20024;-81
2022/08/17 02:40:11;;;;;;;;;;;;;;;26.47;59.94;100629.06;5071529;28;20032;-81
2022/08/17 02:42:40;;;;;;;13.63;12.23;;;;;;;26.41;59.98;100621.97;5075695;28;19923;-80
2022/08/17 02:45:15;;;;;;;14.48;12.85;;;;;;;26.39;60.22;100619.34;5073821;28;20031;-80
2022/08/17 02:47:42;;;;;;;14.18;12.68;;;;;;;26.43;60.12;100621.97;5069362;28;20028;-80
2022/08/17 02:50:09;;;;;;;16.17;12.85;;;;;;;26.40;60.32;100612.19;5070415;28;20117;-80
2022/08/17 02:52:38;;;;;;;14.48;12.88;;;;;;;26.40;60.29;100618.44;5085931;28;20039;-80
2022/08/17 02:55:11;;;;;;;14.23;12.73;;;;;;;26.41;60.10;100622.88;5084879;28;20033;-80
2022/08/17 02:57:37;;;;;;;14.00;12.30;;;;;;;26.40;60.14;100617.56;5074543;28;20111;-80
2022/08/17 03:00:04;;;;;;;;;;;;;;;26.45;60.24;100621.03;5070896;28;20036;-81
2022/08/17 03:02:30;;;;;;;13.80;12.30;;;;;;;26.40;59.68;100638.97;5072399;28;19924;-81
2022/08/17 03:04:55;;;;;;;;;;;;;;;26.40;59.77;100642.53;5074038;28;20100;-82
2022/08/17 03:07:21;;;;;;;15.25;13.30;;;;;;;26.38;60.33;100636.31;5070323;28;20370;-81
2022/08/17 03:09:46;;;;;;;14.30;12.80;;;;;;;26.36;60.19;100640.78;5071735;28;20036;-80
2022/08/17 03:12:13;;;;;;;;;;;;;;;26.39;60.16;100647.91;5070794;28;20020;-80
2022/08/17 03:14:40;;;;;;;14.95;13.30;;;;;;;26.39;60.30;100647.91;5066589;28;19920;-80
2022/08/17 03:17:05;;;;;;;14.85;13.25;;;;;;;26.35;60.40;100641.72;5084090;28;20047;-80
2022/08/17 03:19:31;;;;;;;;;;;;;;;26.37;60.12;100653.28;5078485;28;20486;-80
2022/08/17 03:21:58;;;;;;;15.43;13.00;;;;;;;26.27;60.33;100631.97;5051240;28;20405;-80
2022/08/17 03:24:24;;;;;;;16.23;13.27;;;;;;;26.34;59.99;100657.78;5070649;28;20027;-80
2022/08/17 03:26:49;;;;;;;;;;;;;;;26.38;60.27;100655.06;5073389;28;20024;-80
2022/08/17 03:29:17;;;;;;;13.00;11.60;;;;;;;26.35;59.98;100646.16;5070992;28;19962;-80
2022/08/17 03:31:47;;;;;;;13.60;12.18;;;;;;;26.32;60.16;100641.75;5068449;28;20579;-81
2022/08/17 03:34:14;;;;;;;14.02;12.52;;;;;;;26.32;60.05;100644.41;5069924;28;20417;-80
2022/08/17 03:36:40;;;;;;;15.35;13.70;;;;;;;26.33;60.02;100646.22;5071504;28;20037;-79
2022/08/17 03:39:05;;;;;;;;;;;;;;;26.39;60.05;100646.13;5058738;28;20031;-80
2022/08/17 03:41:31;;;;;;;14.85;13.25;;;;;;;26.29;60.18;100639.13;5069909;28;19912;-80
2022/08/17 03:43:57;;;;;;;;;;;;;;;26.36;59.79;100651.50;5070549;28;20024;-80
2022/08/17 03:57:22;;;;;;;14.77;13.07;;;;;;;26.18;60.12;100636.56;5071725;28;20405;-80
2022/08/17 03:59:47;;;;;;;;;;;;;;;26.32;60.39;100655.13;5076357;28;20481;-80
2022/08/17 04:02:30;;;;;;;15.30;13.05;;;;;;;26.33;60.15;100664.03;5076541;28;19913;-81
2022/08/17 04:04:56;;;;;;;15.95;13.40;;;;;;;26.28;60.26;100660.53;5075618;28;20070;-80
2022/08/17 04:07:29;;;;;;;15.07;13.25;;;;;;;26.30;60.44;100669.44;5081284;28;20114;-80
2022/08/17 04:09:56;;;;;;;14.30;12.73;;;;;;;26.27;60.31;100665.03;5062086;28;20024;-81
2022/08/17 04:12:23;;;;;;;14.55;13.00;;;;;;;26.24;60.51;100662.38;5073526;28;20032;-81
2022/08/17 04:14:49;;;;;;;14.95;12.70;;;;;;;26.30;60.47;100672.13;5074709;28;20040;-82
2022/08/17 04:17:15;;;;;;;15.68;13.23;;;;;;;26.29;60.48;100679.28;5077330;28;20027;-78
2022/08/17 04:19:40;;;;;;;;;;;;;;;26.33;60.33;100680.09;5077482;28;20115;-82
2022/08/17 04:22:06;;;;;;;16.10;13.80;;;;;;;26.32;60.44;100681.03;5073505;28;19923;-82
2022/08/17 04:24:32;;;;;;;;;;;;;;;26.32;60.01;100687.25;5074244;28;20078;-81
2022/08/17 04:26:57;;;;;;;14.88;13.23;;;;;;;26.14;60.28;100658.94;5072224;28;19923;-80
2022/08/17 04:29:24;;;;;;;14.40;12.90;;;;;;;26.29;60.35;100686.41;5072538;28;20071;-80
2022/08/17 04:31:51;;;;;;;14.98;13.45;;;;;;;26.28;60.27;100696.22;5072766;28;20187;-81
2022/08/17 04:34:18;;;;;;;15.75;13.70;;;;;;;26.28;60.35;100693.53;5071517;28;20529;-80
2022/08/17 04:36:44;;;;;;;15.43;13.73;;;;;;;26.29;60.35;100695.34;5072221;28;20414;-80
2022/08/17 04:39:09;;;;;;;;;;;;;;;26.34;60.24;100697.94;5078944;28;20029;-80
2022/08/17 04:44:20;;;;;;;15.18;13.18;;;;;;;26.12;60.40;100674.13;5065568;28;20031;-80
2022/08/17 04:46:45;;;;;;;;;;;;;;;26.30;60.18;100696.22;5072848;28;20024;-81
2022/08/17 04:49:11;;;;;;;14.57;12.93;;;;;;;26.23;60.27;100687.38;5073324;28;19916;-82
2022/08/17 04:51:41;;;;;;;;;;;;;;;26.31;60.06;100700.66;5085291;28;20112;-80
2022/08/17 04:54:15;;;;;;;14.45;12.73;;;;;;;26.27;60.20;100697.16;5074236;28;20408;-80
2022/08/17 04:56:41;;;;;;;16.48;13.35;;;;;;;26.27;60.63;100696.22;5072360;28;20040;-80
2022/08/17 04:59:16;;;;;;;14.93;13.32;;;;;;;26.19;60.19;100686.50;5069098;28;20056;-79
2022/08/17 05:01:44;;;;;;;14.90;13.05;;;;;;;26.19;60.10;100677.59;5075732;28;20042;-80
2022/08/17 05:04:15;;;;;;;15.35;13.73;;;;;;;26.19;60.20;100680.28;5074841;28;20463;-80
2022/08/17 05:06:41;;;;;;;15.07;13.48;;;;;;;26.26;60.67;100695.34;5074668;28;20486;-82
2022/08/17 05:09:06;;;;;;;;;;;;;;;26.28;59.98;100695.34;5076024;28;20035;-81
2022/08/17 05:11:32;;;;;;;14.80;12.98;;;;;;;26.23;60.55;100694.53;5071741;28;19920;-80
2022/08/17 05:13:58;;;;;;;;;;;;;;;26.28;60.29;100693.53;5053098;28;20036;-87
2022/08/17 05:16:25;;;;;;;15.00;12.93;;;;;;;26.21;60.18;100689.19;5071012;28;20297;-82
2022/08/17 05:18:51;;;;;;;14.43;12.93;;;;;;;26.24;60.29;100707.00;5074352;28;20071;-82
2022/08/17 05:21:17;;;;;;;;;;;;;;;26.30;60.18;100709.59;5072097;28;20123;-81
2022/08/17 05:23:44;;;;;;;12.95;11.55;;;;;;;26.12;60.36;100683.91;5074066;28;19913;-81
2022/08/17 05:26:12;;;;;;;14.90;13.15;;;;;;;26.23;60.28;100719.50;5072962;28;20028;-82
2022/08/17 05:28:38;;;;;;;15.55;13.32;;;;;;;26.16;60.18;100699.94;5075263;28;20041;-81
2022/08/17 05:31:03;;;;;;;;;;;;;;;26.28;59.80;100720.31;5079416;28;20029;-82
2022/08/17 05:33:32;;;;;;;13.50;12.10;;;;;;;26.24;60.37;100721.25;5070289;28;19956;-80
2022/08/17 05:35:59;;;;;;;14.65;12.90;;;;;;;26.14;60.20;100700.84;5070949;28;20441;-82
2022/08/17 05:38:28;;;;;;;13.80;12.32;;;;;;;26.20;60.42;100716.84;5071063;28;20115;-80
2022/08/17 05:40:53;;;;;;;14.05;12.18;;;;;;;26.20;60.32;100719.50;5067726;28;20025;-80
2022/08/17 05:43:19;;;;;;;;;;;;;;;26.22;59.97;100723.06;5076912;28;20032;-82
2022/08/17 05:46:15;;;;;;;14.68;12.93;;;;;;;26.21;60.11;100710.59;5075503;28;19912;-80
2022/08/17 05:49:06;;;;;;;15.30;12.45;;;;;;;26.20;60.45;100720.44;5063252;28;20040;-80
2022/08/17 05:51:54;;;;;;;16.15;13.63;;;;;;;26.20;60.32;100722.19;5063962;28;20032;-82
2022/08/17 05:54:54;;;;;;;18.08;13.77;;;;;;;26.22;60.14;100722.19;5077460;28;20028;-80
2022/08/17 05:57:42;;;;;;;14.88;13.02;;;;;;;26.22;60.37;100727.53;5071407;28;20728;-80
2022/08/17 06:00:17;;;;;;;16.23;13.50;;;;;;;26.17;60.64;100716.88;5073364;28;20067;-79
2022/08/17 06:03:11;;;;;;;16.20;14.27;;;;;;;26.19;60.71;100725.78;5074205;28;20121;-81
2022/08/17 06:06:13;;;;;;;;;;;;;;;;;;;;;
2022/08/17 06:09:00;;;;;;;14.05;12.07;;;;;;;25.99;60.61;100691.19;5068246;28;20040;-82
2022/08/17 06:11:49;;;;;;;14.15;12.27;;;;;;;26.03;61.25;100713.47;5072534;28;20103;-82
2022/08/17 06:14:25;;;;;;;14.30;12.30;;;;;;;26.07;61.30;100712.53;5069462;28;20474;-80
2022/08/17 06:17:14;;;;;;;12.43;11.13;;;;;;;26.14;60.79;100724.94;5072023;28;20024;-80
2022/08/17 06:19:59;;;;;;;12.52;11.23;;;;;;;26.15;60.87;100724.03;5080193;28;20075;-83
2022/08/17 06:22:32;;;;;;;12.57;11.27;;;;;;;26.13;60.35;100704.44;5069202;28;20528;-82
2022/08/17 06:25:32;;;;;;;12.35;11.05;;;;;;;26.10;60.77;100717.84;5064597;28;20025;-81
2022/08/17 06:28:06;;;;;;;12.65;11.07;;;;;;;25.68;60.43;100642.47;5060814;28;20020;-83
2022/08/17 06:30:40;;;;;;;11.98;10.77;;;;;;;25.69;60.29;100647.78;5071875;28;20478;-81
2022/08/17 06:33:11;;;;;;;12.00;10.77;;;;;;;26.12;60.38;100735.69;5070235;28;20049;-80
2022/08/17 06:35:42;;;;;;;13.35;11.95;;;;;;;26.07;60.62;100737.50;5068772;28;20486;-82
2022/08/17 06:38:08;;;;;;;12.80;11.35;;;;;;;25.93;60.67;100726.94;5087844;28;20024;-81
2022/08/17 06:40:51;;;;;;;;;;;;;;;26.06;60.66;100742.88;5072088;28;20032;-80
2022/08/17 06:43:41;;;;;;;11.88;10.68;;;;;;;25.96;60.63;100734.94;5070212;28;19909;-81
2022/08/17 06:46:26;;;;;;;12.80;11.43;;;;;;;26.00;60.87;100739.34;5071855;28;20028;-81
2022/08/17 06:49:13;;;;;;;12.48;11.18;;;;;;;26.01;60.93;100745.59;5067031;28;20094;-81
2022/08/17 06:51:48;;;;;;;14.70;12.10;;;;;;;25.89;61.24;100729.69;5074090;28;20401;-81
2022/08/17 06:54:32;;;;;;;14.63;11.25;;;;;;;26.00;61.05;100754.53;5078074;28;20406;-80
2022/08/17 06:57:19;;;;;;;13.05;11.45;;;;;;;26.02;60.95;100744.69;5068214;28;20236;-81
2022/08/17 06:59:58;;;;;;;12.10;10.77;;;;;;;26.04;60.94;100748.25;5061796;28;20127;-81
2022/08/17 07:02:38;;;;;;;14.30;11.32;;;;;;;25.84;60.84;100712.72;5091588;28;20039;-81
2022/08/17 07:05:05;;;;;;;11.93;10.73;;;;;;;26.06;60.57;100745.56;5066475;28;20025;-81
2022/08/17 07:10:16;;;;;;;12.30;11.00;;;;;;;25.98;60.67;100745.63;5069154;28;20509;-81
2022/08/17 07:12:42;;;;;;;;;;;;;;;26.07;60.55;100747.31;5068632;28;20028;-81
2022/08/17 07:15:21;;;;;;;12.52;11.00;;;;;;;26.05;60.74;100760.72;5052247;28;20483;-80
2022/08/17 07:17:47;;;;;;;12.15;10.88;;;;;;;25.95;60.80;100734.94;5080162;28;20040;-80
2022/08/17 07:20:19;;;;;;;;;;;;;;;26.05;61.03;100760.72;5070567;28;20091;-81
2022/08/17 07:23:03;;;;;;;13.02;11.63;;;;;;;26.04;60.64;100761.63;5048584;28;19908;-83
2022/08/17 07:25:34;;;;;;;12.98;11.02;;;;;;;26.00;60.78;100750.06;5049619;28;20028;-82
2022/08/17 07:28:03;;;;;;;14.20;11.40;;;;;;;25.99;60.78;100761.69;5069889;28;20453;-80
2022/08/17 07:30:38;;;;;;;12.07;10.60;;;;;;;26.05;60.92;100765.19;5090895;28;20024;-81
2022/08/17 07:33:18;;;;;;;13.05;11.30;;;;;;;26.04;60.91;100766.09;5067484;28;20044;-81
2022/08/17 07:35:48;;;;;;;12.88;11.52;;;;;;;25.84;60.69;100734.13;5073419;28;20043;-81
2022/08/17 07:38:23;;;;;;;13.23;11.13;;;;;;;25.83;60.68;100729.69;5074078;28;20093;-80
2022/08/17 07:43:49;;;;;;;13.77;11.57;;;;;;;26.04;60.59;100777.69;5073736;28;20135;-82
2022/08/17 07:49:11;;;;;;;13.85;11.95;;;;;;;26.00;61.14;100784.84;5087889;28;20027;-81
2022/08/17 07:51:41;;;;;;;12.75;11.38;;;;;;;26.05;60.81;100776.78;5074670;28;20022;-81
2022/08/17 07:54:18;;;;;;;13.75;10.88;;;;;;;26.10;60.55;100784.75;5066698;28;20025;-81
2022/08/17 07:56:45;;;;;;;13.77;11.70;;;;;;;26.08;60.91;100782.09;5074470;28;20044;-81
2022/08/17 07:59:25;;;;;;;12.77;11.43;;;;;;;25.98;60.97;100765.25;5061078;28;20030;-84
2022/08/17 08:01:54;;;;;;;13.80;11.57;;;;;;;26.08;60.98;100782.09;5055984;28;20020;-84
2022/08/17 08:04:28;;;;;;;13.15;11.38;;;;;;;26.05;61.28;100787.47;5074895;28;20032;-83
2022/08/17 08:06:58;;;;;;;13.45;11.75;;;;;;;25.81;61.20;100751.09;5079404;28;20028;-85
2022/08/17 08:10:00;;;;;;;15.00;11.57;;;;;;;25.82;60.94;100752.88;5073733;28;20020;-85
2022/08/17 08:12:35;;;;;;;14.15;12.35;;;;;;;25.84;61.27;100758.22;5075520;28;20016;-85
2022/08/17 08:15:08;;;;;;;14.23;11.80;;;;;;;26.07;61.14;100787.47;5071141;28;20115;-84
2022/08/17 08:17:44;;;;;;;13.20;11.80;;;;;;;25.93;61.17;100772.44;5070714;28;20028;-85
2022/08/17 08:20:10;;;;;;;12.45;10.95;;;;;;;26.03;61.14;100775.91;5072122;28;20016;-84
2022/08/17 08:22:48;;;;;;;;;;;;;;;26.07;61.23;100784.78;5073977;28;20029;-85
2022/08/17 08:25:26;;;;;;;13.73;11.30;;;;;;;26.02;61.33;100789.31;5057046;28;19938;-84
2022/08/17 08:28:13;;;;;;;14.15;11.75;;;;;;;26.05;61.60;100795.50;5069026;28;20170;-86
2022/08/17 08:30:45;;;;;;;14.15;11.50;;;;;;;25.85;61.24;100751.97;5068670;28;20062;-83
2022/08/17 08:33:20;;;;;;;12.85;11.05;;;;;;;26.06;61.04;100786.59;5063828;28;20117;-85
2022/08/17 08:35:53;;;;;;;14.65;12.20;;;;;;;26.10;61.36;100792.78;5072641;28;20409;-84
2022/08/17 08:38:38;;;;;;;12.98;11.10;;;;;;;26.11;61.17;100792.78;5072093;28;20078;-83
2022/08/17 08:41:31;;;;;;;12.75;11.43;;;;;;;26.11;60.89;100789.22;5071489;28;20024;-86
2022/08/17 08:44:18;;;;;;;14.60;12.07;;;;;;;26.06;61.27;100785.72;5070524;28;20031;-83
2022/08/17 08:46:52;;;;;;;13.23;11.40;;;;;;;26.12;61.08;100781.19;5092267;28;20425;-85
2022/08/17 08:49:34;;;;;;;13.10;11.70;;;;;;;26.04;60.94;100764.31;5079259;28;20039;-84
2022/08/17 08:52:02;;;;;;;16.83;11.85;;;;;;;26.06;61.40;100770.53;5079188;28;20036;-84
2022/08/17 08:54:52;;;;;;;13.02;11.70;;;;;;;26.05;61.13;100771.41;5086303;28;20044;-84
2022/08/17 08:57:24;;;;;;;12.95;11.52;;;;;;;26.18;60.74;100783.78;5071321;28;20518;-83
2022/08/17 08:59:55;;;;;;;13.43;11.80;;;;;;;25.83;60.78;100710.97;5081174;28;20081;-89
2022/08/17 09:02:40;;;;;;;13.18;11.55;;;;;;;26.22;61.01;100786.44;5084270;28;20031;-86
2022/08/17 09:05:24;;;;;;;13.18;11.75;;;;;;;26.12;60.83;100772.25;5073634;28;20407;-84
2022/08/17 09:08:11;;;;;;;12.55;11.00;;;;;;;26.25;60.94;100787.28;5070466;28;20021;-84
2022/08/17 09:10:55;;;;;;;;;;;;;;;26.30;60.62;100789.91;5064382;28;20417;-83
2022/08/17 09:13:32;;;;;;;15.15;11.55;;;;;;;26.20;60.59;100784.66;5071966;28;19999;-85
2022/08/17 09:16:21;;;;;;;12.63;11.27;;;;;;;26.29;60.74;100789.03;5065166;28;20033;-83
2022/08/17 09:18:52;;;;;;;14.02;11.48;;;;;;;26.16;60.59;100769.53;5078186;28;20063;-84
2022/08/17 09:21:48;;;;;;;12.48;10.98;;;;;;;26.28;60.67;100800.63;5054858;28;20028;-84
2022/08/17 09:24:25;;;;;;;13.55;11.32;;;;;;;26.20;60.78;100775.72;5038721;28;20087;-83
2022/08/17 09:27:08;;;;;;;12.57;10.98;;;;;;;26.32;60.37;100794.34;5071302;28;20410;-83
2022/08/17 09:29:38;;;;;;;13.38;11.55;;;;;;;26.35;60.52;100793.41;5054041;28;20024;-83
2022/08/17 09:32:14;;;;;;;12.95;11.52;;;;;;;26.30;60.38;100793.47;5072266;28;20514;-83
2022/08/17 09:34:47;;;;;;;13.25;11.25;;;;;;;26.33;60.81;100793.47;5069503;28;20024;-83
2022/08/17 09:37:15;;;;;;;12.32;11.05;;;;;;;26.35;60.60;100786.28;5074790;28;20107;-84
2022/08/17 09:39:46;;;;;;;13.52;11.25;;;;;;;26.17;60.77;100751.69;5072500;28;20020;-84
2022/08/17 09:42:28;;;;;;;12.10;10.70;;;;;;;26.32;60.51;100780.97;5070583;28;20016;-83
2022/08/17 09:45:08;;;;;;;12.38;11.07;;;;;;;26.37;60.85;100794.28;5075534;28;20021;-84
2022/08/17 09:48:13;;;;;;;11.60;10.38;;;;;;;26.38;60.86;100788.94;5068045;28;20025;-84
2022/08/17 09:50:57;;;;;;;12.85;11.45;;;;;;;26.38;60.62;100782.69;5052648;28;20471;-84
2022/08/17 09:53:22;;;;;;;12.18;10.85;;;;;;;26.43;60.60;100785.31;5070708;28;20032;-84
2022/08/17 09:56:00;;;;;;;;;;;;;;;26.41;60.51;100782.66;5070699;28;20514;-84
2022/08/17 09:59:04;;;;;;;11.48;10.38;;;;;;;26.43;60.49;100785.31;5070903;28;19912;-86
2022/08/17 10:01:41;;;;;;;12.32;10.50;;;;;;;26.31;60.61;100760.47;5068212;28;20032;-84
2022/08/17 10:04:09;;;;;;;;;;;;;;;26.41;60.50;100786.19;5063813;28;20028;-83
2022/08/17 10:06:49;;;;;;;12.55;10.90;;;;;;;26.41;60.79;100786.19;5081987;28;19915;-79
2022/08/17 10:09:22;;;;;;;12.13;10.60;;;;;;;26.40;60.72;100776.41;5073102;28;20028;-87
2022/08/17 10:12:19;;;;;;;12.48;11.18;;;;;;;26.30;60.64;100747.97;5066313;28;20028;-86
2022/08/17 10:15:22;;;;;;;12.95;10.65;;;;;;;26.48;60.94;100778.09;5055570;28;20021;-84
2022/08/17 10:17:56;;;;;;;12.93;10.65;;;;;;;26.29;60.80;100742.63;5061936;28;20039;-85
2022/08/17 10:20:29;;;;;;;12.73;11.18;;;;;;;26.29;60.49;100737.25;5075704;28;20493;-88
2022/08/17 10:26:23;;;;;;;11.68;10.48;;;;;;;26.42;60.58;100749.63;5029000;28;20116;-88
2022/08/17 10:28:59;;;;;;;11.27;10.18;;;;;;;26.42;60.54;100746.94;5061643;28;20021;-86
2022/08/17 10:31:43;;;;;;;13.15;11.23;;;;;;;26.34;60.89;100727.41;5074010;28;20150;-86
2022/08/17 10:34:43;;;;;;;11.52;10.32;;;;;;;26.57;60.41;100761.97;5074087;28;20043;-86
2022/08/17 10:37:38;;;;;;;11.68;10.35;;;;;;;26.55;60.78;100758.41;5073808;28;20051;-85
2022/08/17 10:40:31;;;;;;;11.95;10.75;;;;;;;26.48;61.04;100756.69;5078938;28;20551;-87
2022/08/17 10:43:03;;;;;;;13.65;10.20;;;;;;;26.57;60.61;100752.16;5043844;28;20089;-88
2022/08/17 10:46:00;;;;;;;11.43;10.23;;;;;;;26.54;60.92;100756.59;5069589;28;20032;-86
2022/08/17 10:48:35;;;;;;;11.38;10.13;;;;;;;26.46;60.90;100737.06;5065087;28;20091;-86
2022/08/17 10:51:04;;;;;;;11.85;10.13;;;;;;;26.59;60.80;100765.53;5071371;28;20065;-86
2022/08/17 10:53:30;;;;;;;12.52;11.23;;;;;;;26.44;60.96;100734.44;5092363;28;20031;-85
2022/08/17 10:56:11;;;;;;;11.73;10.52;;;;;;;26.60;60.95;100760.13;5071173;28;20405;-84
2022/08/17 10:58:58;;;;;;;12.20;10.98;;;;;;;26.49;60.48;100732.56;5070569;28;20383;-84
2022/08/17 11:01:33;;;;;;;11.00;9.80;;;;;;;26.62;60.53;100752.09;5052974;28;20032;-84
2022/08/17 11:04:03;;;;;;;11.90;10.65;;;;;;;26.43;60.55;100719.25;5069800;28;20103;-84
2022/08/17 11:06:40;;;;;;;11.13;9.90;;;;;;;26.56;60.68;100747.72;5070717;28;20039;-84
2022/08/17 11:09:34;;;;;;;11.23;9.60;;;;;;;26.62;60.65;100757.44;5071510;28;20020;-85
2022/08/17 11:12:11;;;;;;;11.82;10.18;;;;;;;26.65;60.61;100746.69;5068828;28;20027;-85
2022/08/17 11:14:50;;;;;;;11.32;10.13;;;;;;;26.34;60.80;100689.91;5060229;28;20400;-85
2022/08/17 11:17:34;;;;;;;12.07;10.70;;;;;;;26.66;60.70;100737.75;5070998;28;20086;-84
2022/08/17 11:20:18;;;;;;;10.73;9.65;;;;;;;26.65;60.59;100744.03;5075241;28;20036;-87
2022/08/17 11:22:56;;;;;;;11.90;10.70;;;;;;;26.64;60.75;100747.59;5064384;28;20033;-85
2022/08/17 11:25:37;;;;;;;11.48;9.90;;;;;;;26.42;60.49;100706.78;5068503;28;20029;-86
2022/08/17 11:28:18;;;;;;;11.38;10.20;;;;;;;26.70;60.42;100747.50;5073838;28;20492;-85
2022/08/17 11:30:46;;;;;;;11.20;10.07;;;;;;;26.47;60.47;100707.59;5076530;28;20051;-87
2022/08/17 11:33:27;;;;;;;10.77;9.68;;;;;;;26.49;60.47;100702.22;5071237;28;20032;-85
2022/08/17 11:35:59;;;;;;;13.27;11.43;;;;;;;26.52;60.22;100700.41;5076635;28;20028;-83
2022/08/17 11:38:40;;;;;;;10.98;9.88;;;;;;;26.62;60.46;100716.38;5076210;28;20079;-84
2022/08/17 11:41:17;;;;;;;12.57;10.68;;;;;;;26.67;60.70;100726.13;5072542;28;20186;-84
2022/08/17 11:44:15;;;;;;;11.23;10.02;;;;;;;26.62;60.77;100706.53;5076192;28;20387;-85
2022/08/17 11:52:43;;;;;;;;;;;;;;;26.78;60.64;100721.50;5067370;28;20075;-84
2022/08/17 11:55:31;;;;;;;11.23;10.10;;;;;;;26.61;60.37;100688.72;5069722;28;19963;-84
2022/08/17 11:58:28;;;;;;;10.38;9.38;;;;;;;26.81;60.46;100717.91;5063680;28;20554;-86
2022/08/17 12:01:02;;;;;;;10.13;9.13;;;;;;;26.79;60.51;100704.50;5067118;28;20481;-85
2022/08/17 12:03:35;;;;;;;10.88;9.77;;;;;;;26.80;60.26;100698.25;5069159;28;20024;-84
2022/08/17 12:06:19;;;;;;;10.30;9.30;;;;;;;26.81;60.56;100700.03;5070581;28;20021;-84
2022/08/17 12:08:57;;;;;;;11.40;10.23;;;;;;;26.65;60.58;100673.47;5069482;28;20486;-85
2022/08/17 12:11:29;;;;;;;10.68;9.68;;;;;;;26.53;60.32;100639.69;5069315;28;20027;-85
2022/08/17 12:13:57;;;;;;;10.52;9.43;;;;;;;26.84;60.24;100703.56;5076920;28;20497;-85
2022/08/17 12:16:23;;;;;;;10.85;9.77;;;;;;;26.63;60.19;100660.13;5056697;28;20032;-85
2022/08/17 12:19:10;;;;;;;;;;;;;;;26.88;60.37;100690.13;5073215;28;20032;-84
2022/08/17 12:21:47;;;;;;;10.80;9.75;;;;;;;26.88;60.09;100687.44;5077370;28;19966;-85
2022/08/17 12:24:35;;;;;;;11.27;10.15;;;;;;;26.85;60.35;100682.13;5078256;28;20032;-85